createdAt,value
2019-01-26T00:00:37.639Z,12.47
2019-01-26T00:03:41.089Z,13.57
2019-01-26T00:06:44.509Z,12.13
2019-01-26T00:09:47.942Z,12.10
2019-01-26T00:12:51.384Z,12.40
2019-01-26T00:15:54.822Z,12.67
2019-01-26T00:18:58.252Z,12.63
2019-01-26T00:22:01.696Z,11.30
2019-01-26T00:25:05.981Z,11.63
2019-01-26T00:28:09.424Z,11.27
2019-01-26T00:31:12.865Z,12.10
2019-01-26T00:34:16.276Z,11.20
2019-01-26T00:37:19.788Z,12.30
2019-01-26T00:40:23.237Z,10.77
2019-01-26T00:43:26.684Z,11.53
2019-01-26T00:46:30.122Z,11.23
2019-01-26T00:49:33.537Z,11.30
2019-01-26T00:52:37.047Z,11.40
2019-01-26T00:55:40.463Z,11.17
2019-01-26T00:58:43.912Z,11.33
2019-01-26T01:01:47.344Z,10.13
2019-01-26T01:04:50.849Z,10.47
2019-01-26T01:07:54.346Z,10.63
2019-01-26T01:10:57.788Z,10.23
2019-01-26T01:14:01.241Z,10.67
2019-01-26T01:17:04.665Z,10.47
2019-01-26T01:20:10.149Z,10.03
2019-01-26T01:23:13.571Z,10.20
2019-01-26T01:26:17.011Z,10.60
2019-01-26T01:29:20.461Z,11.03
2019-01-26T01:32:23.888Z,10.13
2019-01-26T01:35:27.326Z,9.90
2019-01-26T01:38:30.780Z,9.73
2019-01-26T01:41:34.209Z,10.17
2019-01-26T01:44:37.661Z,10.77
2019-01-26T01:47:41.109Z,10.30
2019-01-26T01:50:44.601Z,10.67
2019-01-26T01:53:48.053Z,10.40
2019-01-26T01:56:51.472Z,9.87
2019-01-26T01:59:54.909Z,9.40
2019-01-26T02:02:58.352Z,10.60
2019-01-26T02:06:01.775Z,9.37
2019-01-26T02:09:07.216Z,10.20
2019-01-26T02:12:10.652Z,10.17
2019-01-26T02:15:14.508Z,10.50
2019-01-26T02:18:17.945Z,8.70
2019-01-26T02:21:21.372Z,9.60
2019-01-26T02:24:24.801Z,10.70
2019-01-26T02:27:28.244Z,10.30
2019-01-26T02:30:31.740Z,10.80
2019-01-26T02:33:35.177Z,10.03
2019-01-26T02:36:38.592Z,10.67
2019-01-26T02:39:42.020Z,10.23
2019-01-26T02:42:45.463Z,10.00
2019-01-26T02:45:48.891Z,9.50
2019-01-26T02:48:52.332Z,10.47
2019-01-26T02:51:55.792Z,9.40
2019-01-26T02:54:59.263Z,9.50
2019-01-26T02:58:02.705Z,10.33
2019-01-26T03:01:06.113Z,9.37
2019-01-26T03:04:09.540Z,9.37
2019-01-26T03:07:12.986Z,10.07
2019-01-26T03:10:21.345Z,9.67
2019-01-26T03:13:24.789Z,9.50
2019-01-26T03:16:28.231Z,8.83
2019-01-26T03:19:31.643Z,8.17
2019-01-26T03:22:35.081Z,8.70
2019-01-26T03:25:38.493Z,8.60
2019-01-26T03:28:41.937Z,9.37
2019-01-26T03:31:45.342Z,8.70
2019-01-26T03:34:48.766Z,8.33
2019-01-26T03:37:52.216Z,8.10
2019-01-26T03:40:55.628Z,8.67
2019-01-26T03:43:59.059Z,8.67
2019-01-26T03:47:02.472Z,8.00
2019-01-26T03:50:08.952Z,8.00
2019-01-26T03:53:12.388Z,8.07
2019-01-26T03:56:15.874Z,7.07
2019-01-26T03:59:19.308Z,7.53
2019-01-26T04:02:22.788Z,7.10
2019-01-26T04:05:26.213Z,7.80
2019-01-26T04:08:29.637Z,6.63
2019-01-26T04:11:33.085Z,7.37
2019-01-26T04:14:36.522Z,8.27
2019-01-26T04:17:40.018Z,8.27
2019-01-26T04:20:43.449Z,8.37
2019-01-26T04:23:46.896Z,8.23
2019-01-26T04:26:50.386Z,8.60
2019-01-26T04:29:53.829Z,7.80
2019-01-26T04:32:57.263Z,8.13
2019-01-26T04:36:00.676Z,8.30
2019-01-26T04:39:06.812Z,7.90
2019-01-26T04:42:10.240Z,8.13
2019-01-26T04:45:21.529Z,7.73
2019-01-26T04:48:24.969Z,8.23
2019-01-26T04:51:28.400Z,8.93
2019-01-26T04:54:31.844Z,8.20
2019-01-26T04:57:35.244Z,9.90
2019-01-26T05:00:38.690Z,8.10
2019-01-26T05:03:42.124Z,8.03
2019-01-26T05:06:45.568Z,8.77
2019-01-26T05:09:48.986Z,8.57
2019-01-26T05:12:52.424Z,8.60
2019-01-26T05:15:55.834Z,8.60
2019-01-26T05:18:59.271Z,8.87
2019-01-26T05:22:02.712Z,8.23
2019-01-26T05:25:06.683Z,8.67
2019-01-26T05:28:10.133Z,8.00
2019-01-26T05:31:13.544Z,7.97
2019-01-26T05:34:16.984Z,7.87
2019-01-26T05:37:20.415Z,8.20
2019-01-26T05:40:23.850Z,7.97
2019-01-26T05:43:27.255Z,7.33
2019-01-26T05:46:30.698Z,7.90
2019-01-26T05:49:34.116Z,8.00
2019-01-26T05:52:37.565Z,7.97
2019-01-26T05:55:40.992Z,7.87
2019-01-26T05:58:44.429Z,7.50
2019-01-26T06:01:47.860Z,7.50
2019-01-26T06:04:51.293Z,7.33
2019-01-26T06:07:54.730Z,7.00
2019-01-26T06:10:58.174Z,7.13
2019-01-26T06:14:01.592Z,6.30
2019-01-26T06:17:05.028Z,6.60
2019-01-26T06:20:11.505Z,6.43
2019-01-26T06:23:14.921Z,6.10
2019-01-26T06:26:18.361Z,6.23
2019-01-26T06:29:21.799Z,6.13
2019-01-26T06:32:25.375Z,5.67
2019-01-26T06:35:28.814Z,6.17
2019-01-26T06:38:32.219Z,6.80
2019-01-26T06:41:35.678Z,7.57
2019-01-26T06:44:39.078Z,6.77
2019-01-26T06:47:42.526Z,6.53
2019-01-26T06:50:45.984Z,5.30
2019-01-26T06:53:49.389Z,5.57
2019-01-26T06:56:52.832Z,5.57
2019-01-26T06:59:56.258Z,5.87
2019-01-26T07:02:59.860Z,5.77
2019-01-26T07:06:04.910Z,5.63
2019-01-26T07:09:08.556Z,4.83
2019-01-26T07:12:11.968Z,5.67
2019-01-26T07:15:16.437Z,6.00
2019-01-26T07:18:19.844Z,5.73
2019-01-26T07:21:23.284Z,5.23
2019-01-26T07:24:26.767Z,5.50
2019-01-26T07:27:30.210Z,5.00
2019-01-26T07:30:33.756Z,5.30
2019-01-26T07:33:37.216Z,5.07
2019-01-26T07:36:40.628Z,4.97
2019-01-26T07:39:44.048Z,4.63
2019-01-26T07:42:47.504Z,5.50
2019-01-26T07:45:50.908Z,5.67
2019-01-26T07:48:54.339Z,5.10
2019-01-26T07:51:57.745Z,5.27
2019-01-26T07:55:01.189Z,4.93
2019-01-26T07:58:04.668Z,5.43
2019-01-26T08:01:08.112Z,5.03
2019-01-26T08:04:11.520Z,5.43
2019-01-26T08:07:14.965Z,5.23
2019-01-26T08:10:20.610Z,5.37
2019-01-26T08:13:24.045Z,5.33
2019-01-26T08:16:27.472Z,5.20
2019-01-26T08:19:30.900Z,5.43
2019-01-26T08:22:34.306Z,5.40
2019-01-26T08:25:37.837Z,6.03
2019-01-26T08:28:41.244Z,5.50
2019-01-26T08:31:44.692Z,5.53
2019-01-26T08:34:48.093Z,5.00
2019-01-26T08:37:51.533Z,5.80
2019-01-26T08:40:54.944Z,5.90
2019-01-26T08:43:58.384Z,5.30
2019-01-26T08:47:01.792Z,5.27
2019-01-26T08:50:11.163Z,5.27
2019-01-26T08:53:14.576Z,5.83
2019-01-26T08:56:18.016Z,5.00
2019-01-26T08:59:21.439Z,5.40
2019-01-26T09:02:34.996Z,5.13
2019-01-26T09:05:52.043Z,5.53
2019-01-26T09:08:55.476Z,5.57
2019-01-26T09:11:58.888Z,5.97
2019-01-26T09:15:02.341Z,5.47
2019-01-26T09:18:05.740Z,5.43
2019-01-26T09:21:09.180Z,5.53
2019-01-26T09:24:12.588Z,5.80
2019-01-26T09:27:16.035Z,5.23
2019-01-26T09:30:20.996Z,5.80
2019-01-26T09:33:24.432Z,5.73
2019-01-26T09:36:27.842Z,5.90
2019-01-26T09:39:31.276Z,5.90
2019-01-26T09:42:34.680Z,5.77
2019-01-26T09:45:38.118Z,5.60
2019-01-26T09:48:46.240Z,5.93
2019-01-26T09:51:46.752Z,6.53
2019-01-26T09:54:50.200Z,6.30
2019-01-26T09:57:53.604Z,6.07
2019-01-26T10:00:57.044Z,6.60
2019-01-26T10:04:00.452Z,6.17
2019-01-26T10:07:03.888Z,6.63
2019-01-26T10:10:12.935Z,7.43
2019-01-26T10:13:16.370Z,6.67
2019-01-26T10:16:20.128Z,6.37
2019-01-26T10:19:23.588Z,7.63
2019-01-26T10:22:27.037Z,7.30
2019-01-26T10:25:30.466Z,6.23
2019-01-26T10:28:33.886Z,6.40
2019-01-26T10:31:37.316Z,6.40
2019-01-26T10:34:40.776Z,6.70
2019-01-26T10:37:44.184Z,8.37
2019-01-26T10:40:54.997Z,7.20
2019-01-26T10:43:58.580Z,7.47
2019-01-26T10:47:02.489Z,14.83
2019-01-26T10:50:08.344Z,10.53
2019-01-26T10:53:11.796Z,9.80
2019-01-26T10:56:15.233Z,13.13
2019-01-26T10:59:18.644Z,9.13
2019-01-26T11:02:22.080Z,12.77
2019-01-26T11:05:25.605Z,9.53
2019-01-26T11:08:29.016Z,19.33
2019-01-26T11:11:32.468Z,19.27
2019-01-26T11:14:35.892Z,18.77
2019-01-26T11:17:39.344Z,9.90
2019-01-26T11:20:42.759Z,8.17
2019-01-26T11:23:46.208Z,9.77
2019-01-26T11:26:49.688Z,13.57
2019-01-26T11:29:53.143Z,30.37
2019-01-26T11:32:56.560Z,33.13
2019-01-26T11:36:00.002Z,7.33
2019-01-26T11:39:05.327Z,42.53
2019-01-26T11:42:08.769Z,10.57
2019-01-26T11:45:31.778Z,15.77
2019-01-26T11:48:36.864Z,16.23
2019-01-26T11:51:41.916Z,21.90
2019-01-26T11:54:47.008Z,23.93
2019-01-26T11:57:50.466Z,16.37
2019-01-26T12:01:11.628Z,12.17
2019-01-26T12:04:28.297Z,16.00
2019-01-26T12:07:31.865Z,14.10
2019-01-26T12:10:35.345Z,9.03
2019-01-26T12:13:38.796Z,12.43
2019-01-26T12:16:42.243Z,31.07
2019-01-26T12:19:45.689Z,24.30
2019-01-26T12:22:49.177Z,22.50
2019-01-26T12:25:52.639Z,12.53
2019-01-26T12:28:56.062Z,28.13
2019-01-26T12:31:59.504Z,18.53
2019-01-26T12:35:03.568Z,20.33
2019-01-26T12:38:07.004Z,29.27
2019-01-26T12:41:10.419Z,9.40
2019-01-26T12:44:13.861Z,29.43
2019-01-26T12:47:17.314Z,17.07
2019-01-26T12:50:20.723Z,24.13
2019-01-26T12:53:24.170Z,9.70
2019-01-26T12:56:27.664Z,10.53
2019-01-26T12:59:31.110Z,21.03
2019-01-26T13:02:34.521Z,11.17
2019-01-26T13:05:37.976Z,16.50
2019-01-26T13:08:41.388Z,7.60
2019-01-26T13:11:44.841Z,19.03
2019-01-26T13:14:48.272Z,14.50
2019-01-26T13:17:51.703Z,20.43
2019-01-26T13:20:55.126Z,35.13
2019-01-26T13:23:58.566Z,39.57
2019-01-26T13:27:01.988Z,28.97
2019-01-26T13:30:08.508Z,28.33
2019-01-26T13:33:11.920Z,40.00
2019-01-26T13:36:15.371Z,28.83
2019-01-26T13:39:18.792Z,20.13
2019-01-26T13:42:22.236Z,22.10
2019-01-26T13:45:25.749Z,21.67
2019-01-26T13:48:29.208Z,34.97
2019-01-26T13:51:34.026Z,23.90
2019-01-26T13:54:37.560Z,29.20
2019-01-26T13:57:41.055Z,32.47
2019-01-26T14:00:44.512Z,43.87
2019-01-26T14:03:47.926Z,22.57
2019-01-26T14:06:51.389Z,26.23
2019-01-26T14:09:54.833Z,36.17
2019-01-26T14:12:58.251Z,9.23
2019-01-26T14:16:02.516Z,21.30
2019-01-26T14:19:05.924Z,13.37
2019-01-26T14:22:09.372Z,9.13
2019-01-26T14:25:14.330Z,9.30
2019-01-26T14:28:17.829Z,7.37
2019-01-26T14:31:21.285Z,10.97
2019-01-26T14:34:24.709Z,12.90
2019-01-26T14:37:28.160Z,13.73
2019-01-26T14:40:31.575Z,13.00
2019-01-26T14:43:35.012Z,19.63
2019-01-26T14:46:38.427Z,10.17
2019-01-26T14:49:41.950Z,11.57
2019-01-26T14:52:45.813Z,11.60
2019-01-26T14:55:49.328Z,10.20
2019-01-26T14:58:52.729Z,8.93
2019-01-26T15:01:56.180Z,15.37
2019-01-26T15:04:59.599Z,10.80
2019-01-26T15:08:03.276Z,9.57
2019-01-26T15:11:06.721Z,10.00
2019-01-26T15:14:10.140Z,9.60
2019-01-26T15:17:13.588Z,9.40
2019-01-26T15:20:25.625Z,9.80
2019-01-26T15:23:29.056Z,9.50
2019-01-26T15:26:32.540Z,9.73
2019-01-26T15:29:35.943Z,7.97
2019-01-26T15:32:39.400Z,8.50
2019-01-26T15:35:42.816Z,9.37
2019-01-26T15:38:46.366Z,9.20
2019-01-26T15:41:50.804Z,9.60
2019-01-26T15:44:54.208Z,9.60
2019-01-26T15:47:57.730Z,9.23
2019-01-26T15:51:01.141Z,8.60
2019-01-26T15:54:05.208Z,9.77
2019-01-26T15:57:08.615Z,9.13
2019-01-26T16:00:24.065Z,9.13
2019-01-26T16:03:27.476Z,8.73
2019-01-26T16:06:30.916Z,9.43
2019-01-26T16:09:34.336Z,9.97
2019-01-26T16:12:37.856Z,10.10
2019-01-26T16:15:41.276Z,10.20
2019-01-26T16:18:44.734Z,12.03
2019-01-26T16:21:48.145Z,12.03
2019-01-26T16:24:51.672Z,11.43
2019-01-26T16:27:55.114Z,12.23
2019-01-26T16:30:58.604Z,12.10
2019-01-26T16:34:02.024Z,23.83
2019-01-26T16:37:05.488Z,12.43
2019-01-26T16:40:12.192Z,10.87
2019-01-26T16:43:15.649Z,11.73
2019-01-26T16:46:19.165Z,12.07
2019-01-26T16:49:22.584Z,13.23
2019-01-26T16:52:26.016Z,11.03
2019-01-26T16:55:29.435Z,19.03
2019-01-26T16:58:32.886Z,11.13
2019-01-26T17:01:36.327Z,11.10
2019-01-26T17:04:39.761Z,12.27
2019-01-26T17:07:45.896Z,11.90
2019-01-26T17:10:49.307Z,12.07
2019-01-26T17:13:52.768Z,12.40
2019-01-26T17:16:56.184Z,12.00
2019-01-26T17:19:59.630Z,12.20
2019-01-26T17:23:03.283Z,12.10
2019-01-26T17:26:06.708Z,11.70
2019-01-26T17:29:10.156Z,12.30
2019-01-26T17:32:13.574Z,12.40
2019-01-26T17:35:17.012Z,12.50
2019-01-26T17:38:20.432Z,12.53
2019-01-26T17:41:23.871Z,11.30
2019-01-26T17:44:27.312Z,11.83
2019-01-26T17:47:30.747Z,11.30
2019-01-26T17:50:34.156Z,11.73
2019-01-26T17:53:37.624Z,12.43
2019-01-26T17:56:41.028Z,11.57
2019-01-26T17:59:44.480Z,11.73
2019-01-26T18:02:47.929Z,13.20
2019-01-26T18:05:51.347Z,11.57
2019-01-26T18:08:54.784Z,11.17
2019-01-26T18:11:58.198Z,12.03
2019-01-26T18:15:01.628Z,12.20
2019-01-26T18:18:05.505Z,12.33
2019-01-26T18:21:08.920Z,11.63
2019-01-26T18:24:12.451Z,12.40
2019-01-26T18:27:15.872Z,11.90
2019-01-26T18:30:25.352Z,12.97
2019-01-26T18:33:28.768Z,13.07
2019-01-26T18:36:32.202Z,11.80
2019-01-26T18:39:35.655Z,13.13
2019-01-26T18:42:39.129Z,12.20
2019-01-26T18:45:42.572Z,11.73
2019-01-26T18:48:45.987Z,11.33
2019-01-26T18:51:49.432Z,11.30
2019-01-26T18:54:52.853Z,11.87
2019-01-26T18:57:56.284Z,10.60
2019-01-26T19:00:59.728Z,9.50
2019-01-26T19:04:06.219Z,10.10
2019-01-26T19:07:09.669Z,9.93
2019-01-26T19:10:14.031Z,10.67
2019-01-26T19:13:17.465Z,10.83
2019-01-26T19:16:20.908Z,10.73
2019-01-26T19:19:24.320Z,9.97
2019-01-26T19:22:27.759Z,8.40
2019-01-26T19:25:31.209Z,10.00
2019-01-26T19:28:34.685Z,8.33
2019-01-26T19:31:38.113Z,7.87
2019-01-26T19:34:41.520Z,7.37
2019-01-26T19:37:45.193Z,7.80
2019-01-26T19:40:48.623Z,8.00
2019-01-26T19:43:52.029Z,7.17
2019-01-26T19:46:55.456Z,6.60
2019-01-26T19:49:58.888Z,7.43
2019-01-26T19:53:02.299Z,7.33
2019-01-26T19:56:05.808Z,7.50
2019-01-26T19:59:09.228Z,7.60
2019-01-26T20:02:12.656Z,7.80
2019-01-26T20:05:18.686Z,7.30
2019-01-26T20:08:22.116Z,7.50
2019-01-26T20:11:25.625Z,7.37
2019-01-26T20:14:29.028Z,7.07
2019-01-26T20:17:32.468Z,6.93
2019-01-26T20:20:40.728Z,6.80
2019-01-26T20:23:44.180Z,6.50
2019-01-26T20:26:47.584Z,6.77
2019-01-26T20:29:51.026Z,6.30
2019-01-26T20:32:54.531Z,6.37
2019-01-26T20:35:57.984Z,6.97
2019-01-26T20:39:01.384Z,6.67
2019-01-26T20:42:04.904Z,7.27
2019-01-26T20:45:11.423Z,6.97
2019-01-26T20:48:14.860Z,6.53
2019-01-26T20:51:24.710Z,5.83
2019-01-26T20:54:23.420Z,5.93
2019-01-26T20:57:26.860Z,6.40
2019-01-26T21:00:31.508Z,7.07
2019-01-26T21:03:34.961Z,6.27
2019-01-26T21:06:38.363Z,6.07
2019-01-26T21:09:41.803Z,6.37
2019-01-26T21:12:45.351Z,6.57
2019-01-26T21:15:48.776Z,6.63
2019-01-26T21:18:52.184Z,6.83
2019-01-26T21:21:55.625Z,6.50
2019-01-26T21:24:59.036Z,5.73
2019-01-26T21:28:02.488Z,6.37
2019-01-26T21:31:05.896Z,6.73
2019-01-26T21:34:09.336Z,7.00
2019-01-26T21:37:12.740Z,6.27
2019-01-26T21:40:24.429Z,6.53
2019-01-26T21:43:27.856Z,6.17
2019-01-26T21:46:31.301Z,6.40
2019-01-26T21:49:34.708Z,5.87
2019-01-26T21:52:41.095Z,5.93
2019-01-26T21:55:43.269Z,5.93
2019-01-26T21:58:46.709Z,5.37
2019-01-26T22:01:50.144Z,6.57
2019-01-26T22:04:53.561Z,6.13
2019-01-26T22:07:57.008Z,6.30
2019-01-26T22:11:00.429Z,5.80
2019-01-26T22:14:04.248Z,5.90
2019-01-26T22:17:07.661Z,5.40
2019-01-26T22:20:14.040Z,5.63
2019-01-26T22:23:17.528Z,6.10
2019-01-26T22:26:20.961Z,5.23
2019-01-26T22:29:31.076Z,6.30
2019-01-26T22:32:29.534Z,6.00
2019-01-26T22:35:33.108Z,6.10
2019-01-26T22:38:36.521Z,6.47
2019-01-26T22:41:39.965Z,5.80
2019-01-26T22:44:43.364Z,5.90
2019-01-26T22:47:46.804Z,6.10
2019-01-26T22:50:50.212Z,6.23
2019-01-26T22:53:53.652Z,5.47
2019-01-26T22:56:57.063Z,5.50
2019-01-26T23:00:00.531Z,5.77
2019-01-26T23:03:04.641Z,6.37
2019-01-26T23:06:25.802Z,5.80
2019-01-26T23:09:42.253Z,6.20
2019-01-26T23:12:51.274Z,5.30
2019-01-26T23:16:30.796Z,5.03
2019-01-26T23:19:40.291Z,5.20
2019-01-26T23:22:58.335Z,5.53
2019-01-26T23:26:22.744Z,4.73
2019-01-26T23:29:32.363Z,5.20
2019-01-26T23:32:35.777Z,5.23
2019-01-26T23:35:39.208Z,5.20
2019-01-26T23:38:42.681Z,5.40
2019-01-26T23:41:46.090Z,5.37
2019-01-26T23:44:49.519Z,5.23
2019-01-26T23:47:52.932Z,4.87
2019-01-26T23:50:56.388Z,5.10
2019-01-26T23:53:59.796Z,5.17
2019-01-26T23:57:03.221Z,4.83
